Estación Meteorológica Peña el Pijo (Robertgarden) [ 08/17/18 05:40:48 CEST ]

Fecha Hora Presion(HPa) Temp (°C) Humedad % Rocio (°C) Viento ( m/s) Direccion Lluvia 1Hora(mm) Lluvia 24H(mm) LLuvia Total(mm)
2018-Jun-01 01:02:08 1011.200 12.8 72 7.9         254.85
2018-Jun-01 02:01:37 1011.100 11.0 75 6.8         254.85
2018-Jun-01 03:01:42 1010.900 10.1 78 6.4         254.85
2018-Jun-01 04:01:46 1010.500 10.1 80 6.8         254.85
2018-Jun-01 05:03:11 1010.500 9.5 81 6.4         254.85
2018-Jun-01 06:01:52 1010.100 8.3 82 5.4         254.85
2018-Jun-01 07:01:40 1010.600 7.8 83 5.1         254.85
2018-Jun-01 08:01:49 1010.600 10.4 87 8.3         254.85
2018-Jun-01 09:01:43 1010.600 15.3 78 11.5         254.85
2018-Jun-01 10:01:57 1010.200 19.4 58 10.9         254.85
2018-Jun-01 11:01:52 1010.200 22.9 41 8.9 4.1 S     254.85
2018-Jun-01 12:01:32 1010.500 24.1 34 7.2 1.3 S     254.85
2018-Jun-01 13:01:47 1010.400 24.6 33 7.2 3.7 SSE     254.85
2018-Jun-01 14:01:39 1010.100 24.3 31 6.1         254.85
2018-Jun-01 15:01:42 1009.200 25.5 30 6.7         254.85
2018-Jun-01 16:01:39 1009.000 26.1 31 7.6         254.85
2018-Jun-01 17:01:57 1008.700 25.9 30 7.0         254.85
2018-Jun-01 18:01:39 1008.000 24.8 33 7.4 1.4 S     254.85
2018-Jun-01 19:01:52 1008.200 19.9 48 8.5         254.85
2018-Jun-01 20:01:45 1009.000 18.1 54 8.6 1.6 NNW     254.85
2018-Jun-01 21:01:40 1009.800 17.1 56 8.2         254.85
2018-Jun-01 22:01:46 1009.700 15.9 62 8.7         254.85
2018-Jun-01 23:01:24 1010.100 13.9 67 7.8         254.85

Temperatura Máxima:26°    Temperatura Mínima:
Presión Máxima:1011.200 Hpa    Presión Mínima:1008.000 Hpa


Volver